• pl
  • eng

Awiacja
WIADOMOŚCI
ostatnia aktualizacja: 06.03.2019 14:41
Szanowni Państwo,

uprzejmie informujemy, że z dniem 01.01.2019 roku z obszaru MOLC zostało wyłączone BPM we Wrocławiu. Jego zadania zostały przejęte przez BPM w Krakowie.

Komunikaty METAR z lotnisk wojskowych. 08:01 24.04.2019

METAR EPCE 240600Z 13012KT 9999 FEW171 12/M01
Q1014 RMK 119 041 1/1=

METAR EPDA 240600Z 11014KT 9999 BKN158 13/01
Q1012 RMK 127 045 6/6=

METAR EPDE 240600Z 11012KT CAVOK 11/01 Q1019 RMK 110 051 6/6=

METAR EPIR 240600Z 11022KT CAVOK 12/00 Q1014 RMK 119 044 7/7=

METAR EPKS 240600Z 11017KT 9999 FEW043 BKN120 14/05 Q1011 RMK 135
056 6/2=

METAR EPLK 240600Z 14016KT 9999 BKN091 12/03 Q1014 RMK 117 054 7/7=

METAR EPLY 240600Z 12010KT CAVOK 13/03 Q1015 RMK 126 052 6/6=

METAR EPMB 240600Z 13015KT CAVOK 13/00 Q1016 RMK 129 042 1/1=

METAR EPMI 240600Z 10018KT 9999 BKN090 12/02 Q1011 RMK 120 051 5/5=

METAR EPMM 240600Z 14013KT CAVOK 11/00 Q1019 RMK 110 047 4/4=

METAR EPNA 240600Z 14014KT 9999 BKN130 12/02 Q1011 RMK 120 050 6/6=

METAR EPOK 240600Z 13014KT CAVOK 11/03
Q1016 RMK 106 061 1/1=

METAR EPPR 240600Z 12012KT CAVOK 13/M01 Q1016 RMK 128 038 0/0=

METAR EPPW 240600Z 11014KT 9999 SCT040 BKN070 12/02 Q1013 RMK 119 050
7/3=

METAR EPRA 240600Z NIL=

METAR EPSN 240600Z 11018KT CAVOK 13/02 Q1010 RMK 129 048 2/2=

METAR EPTM 240600Z 12010KT CAVOK 12/03 Q1016 RMK 122 054 5/5=
 METAR EPLY
Lokalizacja:EPLY Łęczyca
Czas:06:00 UTC
Średni kierunek wiatru:120 °
Średnia prędkość wiatru:10 węzłów
CAVOK:Widzialność 10 km i więcej, zjawisko: NIL, zachmurzenie: NSC
Temperatura powietrza:13 °C
Temperatura punktu rosy:3 °C
Ciśnienie QNH:1015 hPa
Dokładna temperatura powietrza:12,6 °C
Dokładna wilgotność względna:52 %
Zachmurzenie przez wszystkie piętra chmur:6/8
Zachmurzenie przez chmury niskie:6/8
Awiacja.imgw.pl jest pogodowym serwisem informacyjnym
Instytutu Meteorologii i Gospodarki Wodnej Państwowego Instytutu Badawczego.
Copyright IMGW PIB 2009-2011© Wszelkie prawa zastrzeżone.